createdAt,value
2023-01-21T00:00:00.875Z,1014.68
2023-01-21T00:01:00.859Z,1014.72
2023-01-21T00:02:00.906Z,1014.77
2023-01-21T00:03:00.831Z,1014.76
2023-01-21T00:04:00.824Z,1014.79
2023-01-21T00:05:00.802Z,1014.82
2023-01-21T00:06:00.797Z,1014.81
2023-01-21T00:07:00.768Z,1014.83
2023-01-21T00:08:02.684Z,1014.89
2023-01-21T00:09:00.744Z,1014.92
2023-01-21T00:10:00.733Z,1014.92
2023-01-21T00:11:00.724Z,1014.92
2023-01-21T00:12:00.707Z,1014.90
2023-01-21T00:13:00.696Z,1014.94
2023-01-21T00:14:00.684Z,1014.96
2023-01-21T00:15:00.665Z,1015.01
2023-01-21T00:16:00.659Z,1015.01
2023-01-21T00:17:00.638Z,1015.03
2023-01-21T00:18:00.630Z,1015.01
2023-01-21T00:19:00.614Z,1015.05
2023-01-21T00:20:00.604Z,1015.05
2023-01-21T00:21:00.591Z,1015.11
2023-01-21T00:22:00.578Z,1015.10
2023-01-21T00:23:00.573Z,1015.11
2023-01-21T00:24:00.558Z,1015.16
2023-01-21T00:25:00.579Z,1015.16
2023-01-21T00:26:00.543Z,1015.23
2023-01-21T00:27:00.521Z,1015.22
2023-01-21T00:28:00.494Z,1015.24
2023-01-21T00:29:00.496Z,1015.22
2023-01-21T00:30:00.473Z,1015.24
2023-01-21T00:31:00.584Z,1015.25
2023-01-21T00:32:00.504Z,1015.28
2023-01-21T00:33:00.430Z,1015.25
2023-01-21T00:34:00.421Z,1015.28
2023-01-21T00:35:00.415Z,1015.27
2023-01-21T00:36:00.391Z,1015.27
2023-01-21T00:37:00.390Z,1015.31
2023-01-21T00:38:00.373Z,1015.30
2023-01-21T00:39:00.350Z,1015.31
2023-01-21T00:40:00.352Z,1015.34
2023-01-21T00:41:00.340Z,1015.32
2023-01-21T00:42:00.313Z,1015.36
2023-01-21T00:43:00.301Z,1015.36
2023-01-21T00:44:00.297Z,1015.37
2023-01-21T00:45:00.287Z,1015.37
2023-01-21T00:46:00.302Z,1015.36
2023-01-21T00:47:00.248Z,1015.37
2023-01-21T00:48:00.237Z,1015.38
2023-01-21T00:49:00.226Z,1015.40
2023-01-21T00:50:00.211Z,1015.38
2023-01-21T00:51:00.256Z,1015.33
2023-01-21T00:52:00.188Z,1015.41
2023-01-21T00:53:00.180Z,1015.39
2023-01-21T00:54:00.152Z,1015.46
2023-01-21T00:55:00.147Z,1015.51
2023-01-21T00:56:00.150Z,1015.51
2023-01-21T00:57:00.123Z,1015.51
2023-01-21T00:58:00.124Z,1015.53
2023-01-21T00:59:00.112Z,1015.53
2023-01-21T01:00:00.112Z,1015.57
2023-01-21T01:01:00.079Z,1015.57
2023-01-21T01:02:00.094Z,1015.57
2023-01-21T01:03:00.143Z,1015.56
2023-01-21T01:04:00.024Z,1015.63
2023-01-21T01:05:00.004Z,1015.60
2023-01-21T01:05:59.995Z,1015.60
2023-01-21T01:06:59.979Z,1015.66
2023-01-21T01:07:59.970Z,1015.66
2023-01-21T01:08:59.955Z,1015.71
2023-01-21T01:09:59.945Z,1015.67
2023-01-21T01:10:59.942Z,1015.73
2023-01-21T01:11:59.932Z,1015.77
2023-01-21T01:12:59.898Z,1015.79
2023-01-21T01:13:59.887Z,1015.82
2023-01-21T01:15:01.026Z,1015.82
2023-01-21T01:15:59.877Z,1015.85
2023-01-21T01:16:59.848Z,1015.85
2023-01-21T01:17:59.841Z,1015.85
2023-01-21T01:18:59.824Z,1015.83
2023-01-21T01:19:59.811Z,1015.86
2023-01-21T01:20:59.805Z,1015.87
2023-01-21T01:21:59.784Z,1015.89
2023-01-21T01:22:59.871Z,1015.92
2023-01-21T01:23:59.766Z,1015.86
2023-01-21T01:24:59.747Z,1015.92
2023-01-21T01:25:59.741Z,1015.95
2023-01-21T01:26:59.730Z,1015.96
2023-01-21T01:27:59.707Z,1015.96
2023-01-21T01:28:59.683Z,1015.96
2023-01-21T01:29:59.680Z,1015.98
2023-01-21T01:30:59.770Z,1016.01
2023-01-21T01:31:59.648Z,1016.06
2023-01-21T01:32:59.641Z,1016.11
2023-01-21T01:33:59.652Z,1016.12
2023-01-21T01:34:59.610Z,1016.17
2023-01-21T01:35:59.599Z,1016.16
2023-01-21T01:36:59.580Z,1016.21
2023-01-21T01:37:59.569Z,1016.26
2023-01-21T01:38:59.558Z,1016.21
2023-01-21T01:39:59.534Z,1016.27
2023-01-21T01:40:59.536Z,1016.25
2023-01-21T01:41:59.517Z,1016.29
2023-01-21T01:42:59.500Z,1016.35
2023-01-21T01:43:59.502Z,1016.37
2023-01-21T01:44:59.481Z,1016.37
2023-01-21T01:45:59.512Z,1016.39
2023-01-21T01:46:59.483Z,1016.43
2023-01-21T01:47:59.439Z,1016.43
2023-01-21T01:48:59.428Z,1016.47
2023-01-21T01:49:59.412Z,1016.46
2023-01-21T01:50:59.427Z,1016.47
2023-01-21T01:51:59.391Z,1016.50
2023-01-21T01:52:59.373Z,1016.53
2023-01-21T01:53:59.357Z,1016.54
2023-01-21T01:54:59.346Z,1016.57
2023-01-21T01:55:59.327Z,1016.55
2023-01-21T01:56:59.318Z,1016.56
2023-01-21T01:57:59.303Z,1016.60
2023-01-21T01:58:59.296Z,1016.59
2023-01-21T01:59:59.268Z,1016.62
2023-01-21T02:00:59.276Z,1016.66
2023-01-21T02:01:59.284Z,1016.63
2023-01-21T02:02:59.307Z,1016.67
2023-01-21T02:03:59.230Z,1016.65
2023-01-21T02:04:59.212Z,1016.65
2023-01-21T02:05:59.209Z,1016.64
2023-01-21T02:06:59.185Z,1016.67
2023-01-21T02:07:59.170Z,1016.67
2023-01-21T02:08:59.156Z,1016.63
2023-01-21T02:09:59.140Z,1016.69
2023-01-21T02:10:59.188Z,1016.68
2023-01-21T02:11:59.127Z,1016.75
2023-01-21T02:12:59.108Z,1016.66
2023-01-21T02:13:59.104Z,1016.68
2023-01-21T02:14:59.076Z,1016.70
2023-01-21T02:15:59.088Z,1016.73
2023-01-21T02:16:59.046Z,1016.75
2023-01-21T02:17:59.032Z,1016.77
2023-01-21T02:18:59.025Z,1016.79
2023-01-21T02:19:59.011Z,1016.77
2023-01-21T02:20:58.999Z,1016.78
2023-01-21T02:21:58.985Z,1016.81
2023-01-21T02:22:58.976Z,1016.83
2023-01-21T02:23:58.956Z,1016.84
2023-01-21T02:24:58.937Z,1016.89
2023-01-21T02:25:58.929Z,1016.93
2023-01-21T02:26:58.920Z,1016.91
2023-01-21T02:27:58.897Z,1016.89
2023-01-21T02:28:58.885Z,1016.97
2023-01-21T02:29:58.869Z,1016.99
2023-01-21T02:30:58.950Z,1017.02
2023-01-21T02:31:58.847Z,1017.04
2023-01-21T02:32:58.835Z,1017.02
2023-01-21T02:33:58.822Z,1017.05
2023-01-21T02:34:58.817Z,1017.07
2023-01-21T02:35:58.790Z,1017.09
2023-01-21T02:36:58.784Z,1017.15
2023-01-21T02:37:58.763Z,1017.19
2023-01-21T02:38:58.749Z,1017.18
2023-01-21T02:39:58.744Z,1017.21
2023-01-21T02:40:58.720Z,1017.16
2023-01-21T02:41:58.712Z,1017.20
2023-01-21T02:42:58.695Z,1017.19
2023-01-21T02:43:58.679Z,1017.22
2023-01-21T02:44:58.675Z,1017.26
2023-01-21T02:45:58.660Z,1017.23
2023-01-21T02:46:58.647Z,1017.31
2023-01-21T02:47:58.625Z,1017.31
2023-01-21T02:48:58.615Z,1017.34
2023-01-21T02:49:58.599Z,1017.32
2023-01-21T02:50:58.631Z,1017.39
2023-01-21T02:51:58.577Z,1017.35
2023-01-21T02:52:58.573Z,1017.36
2023-01-21T02:53:58.544Z,1017.37
2023-01-21T02:54:58.530Z,1017.37
2023-01-21T02:55:58.517Z,1017.37
2023-01-21T02:56:58.501Z,1017.41
2023-01-21T02:57:58.494Z,1017.42
2023-01-21T02:58:58.475Z,1017.42
2023-01-21T02:59:58.472Z,1017.39
2023-01-21T03:00:58.493Z,1017.42
2023-01-21T03:01:58.509Z,1017.40
2023-01-21T03:02:58.434Z,1017.40
2023-01-21T03:03:58.418Z,1017.42
2023-01-21T03:04:58.392Z,1017.43
2023-01-21T03:05:58.392Z,1017.42
2023-01-21T03:06:58.373Z,1017.42
2023-01-21T03:07:58.352Z,1017.45
2023-01-21T03:08:58.348Z,1017.45
2023-01-21T03:09:58.327Z,1017.48
2023-01-21T03:10:58.317Z,1017.48
2023-01-21T03:11:58.297Z,1017.49
2023-01-21T03:12:58.286Z,1017.49
2023-01-21T03:13:58.273Z,1017.55
2023-01-21T03:14:58.276Z,1017.56
2023-01-21T03:15:58.244Z,1017.56
2023-01-21T03:16:58.237Z,1017.54
2023-01-21T03:17:58.218Z,1017.53
2023-01-21T03:18:58.202Z,1017.57
2023-01-21T03:19:58.189Z,1017.56
2023-01-21T03:20:58.169Z,1017.55
2023-01-21T03:21:58.159Z,1017.56
2023-01-21T03:22:58.144Z,1017.59
2023-01-21T03:23:58.131Z,1017.62
2023-01-21T03:24:58.121Z,1017.63
2023-01-21T03:25:58.112Z,1017.62
2023-01-21T03:26:58.095Z,1017.61
2023-01-21T03:27:58.077Z,1017.61
2023-01-21T03:28:58.064Z,1017.61
2023-01-21T03:29:58.047Z,1017.66
2023-01-21T03:30:58.075Z,1017.65
2023-01-21T03:31:58.044Z,1017.64
2023-01-21T03:32:58.005Z,1017.63
2023-01-21T03:33:57.993Z,1017.63
2023-01-21T03:34:57.970Z,1017.63
2023-01-21T03:35:57.970Z,1017.63
2023-01-21T03:36:57.952Z,1017.67
2023-01-21T03:37:57.935Z,1017.67
2023-01-21T03:38:57.928Z,1017.69
2023-01-21T03:39:57.908Z,1017.69
2023-01-21T03:40:57.918Z,1017.71
2023-01-21T03:41:57.886Z,1017.64
2023-01-21T03:42:57.864Z,1017.69
2023-01-21T03:43:57.864Z,1017.68
2023-01-21T03:44:57.837Z,1017.67
2023-01-21T03:45:57.906Z,1017.68
2023-01-21T03:46:57.812Z,1017.66
2023-01-21T03:47:57.799Z,1017.66
2023-01-21T03:48:57.778Z,1017.69
2023-01-21T03:49:57.769Z,1017.71
2023-01-21T03:50:57.770Z,1017.73
2023-01-21T03:51:57.740Z,1017.69
2023-01-21T03:52:57.732Z,1017.68
2023-01-21T03:53:57.722Z,1017.77
2023-01-21T03:54:57.693Z,1017.76
2023-01-21T03:55:57.678Z,1017.76
2023-01-21T03:56:57.676Z,1017.77
2023-01-21T03:57:57.665Z,1017.80
2023-01-21T03:58:57.647Z,1017.82
2023-01-21T03:59:57.626Z,1017.83
2023-01-21T04:00:57.668Z,1017.84
2023-01-21T04:01:57.633Z,1017.82
2023-01-21T04:02:57.591Z,1017.83
2023-01-21T04:03:57.584Z,1017.89
2023-01-21T04:04:57.557Z,1017.89
2023-01-21T04:05:57.543Z,1017.87
2023-01-21T04:06:57.531Z,1017.87
2023-01-21T04:07:57.519Z,1017.90
2023-01-21T04:08:57.502Z,1017.88
2023-01-21T04:09:57.483Z,1017.89
2023-01-21T04:10:57.476Z,1017.92
2023-01-21T04:11:57.457Z,1017.94
2023-01-21T04:12:57.440Z,1017.94
2023-01-21T04:13:57.433Z,1017.92
2023-01-21T04:14:57.461Z,1017.93
2023-01-21T04:15:57.419Z,1017.93
2023-01-21T04:16:57.385Z,1017.94
2023-01-21T04:17:57.371Z,1017.94
2023-01-21T04:18:57.363Z,1017.94
2023-01-21T04:19:57.347Z,1017.92
2023-01-21T04:20:57.325Z,1017.93
2023-01-21T04:21:57.318Z,1017.96
2023-01-21T04:22:57.304Z,1017.93
2023-01-21T04:23:57.298Z,1017.96
2023-01-21T04:24:57.275Z,1017.94
2023-01-21T04:25:57.258Z,1017.92
2023-01-21T04:26:57.255Z,1017.95
2023-01-21T04:27:57.225Z,1017.92
2023-01-21T04:28:57.214Z,1018.03
2023-01-21T04:29:57.200Z,1017.99
2023-01-21T04:30:57.240Z,1017.99
2023-01-21T04:31:57.228Z,1018.01
2023-01-21T04:32:57.172Z,1018.01
2023-01-21T04:33:57.145Z,1017.97
2023-01-21T04:34:57.131Z,1018.00
2023-01-21T04:35:57.106Z,1018.04
2023-01-21T04:36:57.097Z,1018.11
2023-01-21T04:37:57.084Z,1018.12
2023-01-21T04:38:57.079Z,1018.14
2023-01-21T04:39:57.059Z,1018.17
2023-01-21T04:40:57.045Z,1018.17
2023-01-21T04:41:57.027Z,1018.17
2023-01-21T04:42:57.010Z,1018.16
2023-01-21T04:43:56.997Z,1018.19
2023-01-21T04:44:57.007Z,1018.20
2023-01-21T04:45:57.045Z,1018.24
2023-01-21T04:46:56.956Z,1018.26
2023-01-21T04:47:56.939Z,1018.26
2023-01-21T04:48:56.935Z,1018.30
2023-01-21T04:49:56.912Z,1018.27
2023-01-21T04:50:56.993Z,1018.32
2023-01-21T04:51:56.888Z,1018.31
2023-01-21T04:52:56.876Z,1018.35
2023-01-21T04:53:56.851Z,1018.31
2023-01-21T04:54:56.851Z,1018.30
2023-01-21T04:55:56.825Z,1018.33
2023-01-21T04:56:56.818Z,1018.36
2023-01-21T04:57:56.790Z,1018.40
2023-01-21T04:58:56.801Z,1018.37
2023-01-21T04:59:56.767Z,1018.41
2023-01-21T05:00:56.822Z,1018.38
2023-01-21T05:01:56.822Z,1018.44
2023-01-21T05:02:56.733Z,1018.44
2023-01-21T05:03:56.720Z,1018.42
2023-01-21T05:04:56.694Z,1018.47
2023-01-21T05:05:56.683Z,1018.45
2023-01-21T05:06:56.681Z,1018.49
2023-01-21T05:07:56.666Z,1018.48
2023-01-21T05:08:56.634Z,1018.47
2023-01-21T05:09:56.628Z,1018.46
2023-01-21T05:10:56.608Z,1018.45
2023-01-21T05:11:56.597Z,1018.53
2023-01-21T05:12:56.574Z,1018.52
2023-01-21T05:13:56.573Z,1018.54
2023-01-21T05:14:56.552Z,1018.57
2023-01-21T05:15:56.655Z,1018.51
2023-01-21T05:16:56.658Z,1018.51
2023-01-21T05:17:56.513Z,1018.54
2023-01-21T05:18:56.498Z,1018.50
2023-01-21T05:19:56.481Z,1018.50
2023-01-21T05:20:56.465Z,1018.52
2023-01-21T05:21:56.453Z,1018.57
2023-01-21T05:22:56.442Z,1018.60
2023-01-21T05:23:56.431Z,1018.62
2023-01-21T05:24:56.407Z,1018.63
2023-01-21T05:25:56.395Z,1018.66
2023-01-21T05:26:56.392Z,1018.70
2023-01-21T05:27:56.365Z,1018.71
2023-01-21T05:28:56.355Z,1018.79
2023-01-21T05:29:56.336Z,1018.76
2023-01-21T05:30:56.360Z,1018.75
2023-01-21T05:31:56.331Z,1018.79
2023-01-21T05:32:56.299Z,1018.75
2023-01-21T05:33:56.284Z,1018.81
2023-01-21T05:34:56.262Z,1018.84
2023-01-21T05:35:56.252Z,1018.86
2023-01-21T05:36:56.237Z,1018.89
2023-01-21T05:37:57.373Z,1018.94
2023-01-21T05:38:56.209Z,1018.94
2023-01-21T05:39:56.191Z,1019.01
2023-01-21T05:40:56.176Z,1019.04
2023-01-21T05:41:56.166Z,1019.00
2023-01-21T05:42:56.165Z,1018.99
2023-01-21T05:43:56.133Z,1019.01
2023-01-21T05:44:56.123Z,1019.04
2023-01-21T05:45:56.134Z,1019.00
2023-01-21T05:46:56.096Z,1019.02
2023-01-21T05:47:56.087Z,1019.04
2023-01-21T05:48:56.069Z,1019.07
2023-01-21T05:49:56.054Z,1019.05
2023-01-21T05:50:58.200Z,1019.03
2023-01-21T05:51:56.017Z,1019.11
2023-01-21T05:52:56.009Z,1019.09
2023-01-21T05:53:55.989Z,1019.11
2023-01-21T05:55:01.956Z,1019.12
2023-01-21T05:55:55.966Z,1019.13
2023-01-21T05:56:55.950Z,1019.15
2023-01-21T05:57:55.944Z,1019.17
2023-01-21T05:58:55.920Z,1019.24
2023-01-21T05:59:55.902Z,1019.21
2023-01-21T06:00:55.897Z,1019.26
2023-01-21T06:01:55.875Z,1019.31
2023-01-21T06:02:55.863Z,1019.35
2023-01-21T06:03:55.921Z,1019.29
2023-01-21T06:04:55.839Z,1019.31
2023-01-21T06:05:55.817Z,1019.30
2023-01-21T06:06:55.810Z,1019.34
2023-01-21T06:07:55.794Z,1019.35
2023-01-21T06:08:55.775Z,1019.31
2023-01-21T06:09:55.762Z,1019.35
2023-01-21T06:10:55.747Z,1019.36
2023-01-21T06:11:55.737Z,1019.36
2023-01-21T06:12:55.729Z,1019.35
2023-01-21T06:13:55.702Z,1019.38
2023-01-21T06:14:55.698Z,1019.43
2023-01-21T06:15:55.690Z,1019.40
2023-01-21T06:16:55.660Z,1019.42
2023-01-21T06:17:55.644Z,1019.42
2023-01-21T06:18:55.635Z,1019.47
2023-01-21T06:19:55.620Z,1019.46
2023-01-21T06:20:55.601Z,1019.44
2023-01-21T06:21:55.595Z,1019.46
2023-01-21T06:22:55.567Z,1019.46
2023-01-21T06:23:55.560Z,1019.51
2023-01-21T06:24:55.553Z,1019.51
2023-01-21T06:25:55.537Z,1019.51
2023-01-21T06:26:55.518Z,1019.54
2023-01-21T06:27:55.510Z,1019.53
2023-01-21T06:28:55.493Z,1019.57
2023-01-21T06:29:55.470Z,1019.54
2023-01-21T06:30:55.556Z,1019.54
2023-01-21T06:31:55.549Z,1019.58
2023-01-21T06:32:55.447Z,1019.58
2023-01-21T06:33:55.420Z,1019.66
2023-01-21T06:34:55.400Z,1019.65
2023-01-21T06:35:55.387Z,1019.67
2023-01-21T06:36:55.374Z,1019.71
2023-01-21T06:37:55.358Z,1019.69
2023-01-21T06:38:55.343Z,1019.69
2023-01-21T06:39:55.328Z,1019.75
2023-01-21T06:40:55.313Z,1019.75
2023-01-21T06:41:55.572Z,1019.76
2023-01-21T06:42:55.283Z,1019.79
2023-01-21T06:43:55.279Z,1019.78
2023-01-21T06:44:55.265Z,1019.79
2023-01-21T06:45:55.264Z,1019.85
2023-01-21T06:47:02.147Z,1019.83
2023-01-21T06:47:55.233Z,1019.89
2023-01-21T06:48:55.202Z,1019.92
2023-01-21T06:49:55.186Z,1019.92
2023-01-21T06:50:55.200Z,1019.92
2023-01-21T06:51:55.156Z,1019.94
2023-01-21T06:52:55.145Z,1019.99
2023-01-21T06:53:55.144Z,1019.96
2023-01-21T06:54:55.114Z,1019.99
2023-01-21T06:55:55.098Z,1020.01
2023-01-21T06:56:55.089Z,1020.01
2023-01-21T06:57:55.070Z,1020.00
2023-01-21T06:58:55.057Z,1020.01
2023-01-21T06:59:55.036Z,1019.99
2023-01-21T07:00:55.032Z,1020.03
2023-01-21T07:01:55.051Z,1020.04
2023-01-21T07:02:55.036Z,1020.01
2023-01-21T07:03:55.022Z,1020.09
2023-01-21T07:04:55.152Z,1020.10
2023-01-21T07:05:54.957Z,1020.12
2023-01-21T07:06:54.937Z,1020.16
2023-01-21T07:07:54.936Z,1020.17
2023-01-21T07:08:54.915Z,1020.24
2023-01-21T07:09:54.895Z,1020.24
2023-01-21T07:10:54.897Z,1020.22
2023-01-21T07:11:54.871Z,1020.27
2023-01-21T07:12:54.860Z,1020.24
2023-01-21T07:13:54.848Z,1020.28
2023-01-21T07:14:54.831Z,1020.28
2023-01-21T07:15:54.812Z,1020.30
2023-01-21T07:16:54.797Z,1020.32
2023-01-21T07:17:54.791Z,1020.33
2023-01-21T07:18:54.786Z,1020.33
2023-01-21T07:19:54.751Z,1020.34
2023-01-21T07:20:54.748Z,1020.31
2023-01-21T07:21:54.723Z,1020.32
2023-01-21T07:22:54.713Z,1020.31
2023-01-21T07:23:54.695Z,1020.32
2023-01-21T07:24:54.671Z,1020.33
2023-01-21T07:25:54.665Z,1020.34
2023-01-21T07:26:54.645Z,1020.39
2023-01-21T07:27:54.636Z,1020.35
2023-01-21T07:28:54.625Z,1020.40
2023-01-21T07:29:54.611Z,1020.40
2023-01-21T07:30:54.668Z,1020.36
2023-01-21T07:31:54.629Z,1020.42
2023-01-21T07:32:54.569Z,1020.41
2023-01-21T07:33:54.551Z,1020.41
2023-01-21T07:34:54.536Z,1020.41
2023-01-21T07:35:54.517Z,1020.42
2023-01-21T07:36:54.509Z,1020.39
2023-01-21T07:37:54.488Z,1020.40
2023-01-21T07:38:54.479Z,1020.38
2023-01-21T07:39:54.746Z,1020.39
2023-01-21T07:40:54.442Z,1020.41
2023-01-21T07:41:54.431Z,1020.41
2023-01-21T07:42:54.411Z,1020.43
2023-01-21T07:43:54.396Z,1020.40
2023-01-21T07:44:54.410Z,1020.42
2023-01-21T07:45:54.392Z,1020.42
2023-01-21T07:46:54.392Z,1020.42
2023-01-21T07:47:54.378Z,1020.42
2023-01-21T07:48:54.337Z,1020.39
2023-01-21T07:49:54.339Z,1020.45
2023-01-21T07:50:54.344Z,1020.43
2023-01-21T07:51:54.284Z,1020.45
2023-01-21T07:52:54.276Z,1020.47
2023-01-21T07:53:54.251Z,1020.46
2023-01-21T07:54:54.242Z,1020.50
2023-01-21T07:55:54.230Z,1020.51
2023-01-21T07:56:54.200Z,1020.50
2023-01-21T07:57:54.192Z,1020.48
2023-01-21T07:58:54.184Z,1020.50
2023-01-21T07:59:54.166Z,1020.54
2023-01-21T08:00:54.158Z,1020.61
2023-01-21T08:01:54.200Z,1020.60
2023-01-21T08:02:54.174Z,1020.63
2023-01-21T08:03:54.101Z,1020.64
2023-01-21T08:04:54.098Z,1020.65
2023-01-21T08:05:54.074Z,1020.63
2023-01-21T08:06:54.062Z,1020.64
2023-01-21T08:07:54.039Z,1020.65
2023-01-21T08:08:54.030Z,1020.67
2023-01-21T08:09:54.017Z,1020.68
2023-01-21T08:10:54.010Z,1020.71
2023-01-21T08:11:53.988Z,1020.68
2023-01-21T08:12:53.972Z,1020.70
2023-01-21T08:13:53.963Z,1020.68
2023-01-21T08:14:53.943Z,1020.69
2023-01-21T08:15:53.955Z,1020.71
2023-01-21T08:16:53.905Z,1020.67
2023-01-21T08:17:53.910Z,1020.72
2023-01-21T08:18:53.886Z,1020.72
2023-01-21T08:19:53.859Z,1020.76
2023-01-21T08:20:53.854Z,1020.73
2023-01-21T08:21:53.849Z,1020.77
2023-01-21T08:22:53.841Z,1020.78
2023-01-21T08:23:53.809Z,1020.79
2023-01-21T08:24:53.794Z,1020.81
2023-01-21T08:25:53.781Z,1020.79
2023-01-21T08:26:53.771Z,1020.81
2023-01-21T08:27:53.748Z,1020.88
2023-01-21T08:28:53.741Z,1020.84
2023-01-21T08:29:53.724Z,1020.85
2023-01-21T08:30:53.797Z,1020.86
2023-01-21T08:31:53.788Z,1020.91
2023-01-21T08:32:53.672Z,1020.90
2023-01-21T08:33:53.663Z,1020.90
2023-01-21T08:34:53.659Z,1020.95
2023-01-21T08:35:53.638Z,1020.95
2023-01-21T08:36:53.631Z,1020.92
2023-01-21T08:37:53.605Z,1020.95
2023-01-21T08:38:53.600Z,1020.98
2023-01-21T08:39:53.575Z,1021.04
2023-01-21T08:40:53.557Z,1021.02
2023-01-21T08:41:53.556Z,1021.05
2023-01-21T08:42:53.527Z,1021.13
2023-01-21T08:43:53.508Z,1021.11
2023-01-21T08:44:53.496Z,1021.12
2023-01-21T08:45:53.539Z,1021.13
2023-01-21T08:46:53.469Z,1021.14
2023-01-21T08:47:53.454Z,1021.17
2023-01-21T08:48:53.444Z,1021.22
2023-01-21T08:49:53.428Z,1021.15
2023-01-21T08:50:53.456Z,1021.12
2023-01-21T08:51:53.396Z,1021.18
2023-01-21T08:52:53.387Z,1021.12
2023-01-21T08:53:53.379Z,1021.13
2023-01-21T08:54:53.354Z,1021.15
2023-01-21T08:55:53.334Z,1021.13
2023-01-21T08:56:53.325Z,1021.15
2023-01-21T08:57:53.312Z,1021.13
2023-01-21T08:58:53.296Z,1021.16
2023-01-21T08:59:53.275Z,1021.19
2023-01-21T09:00:53.312Z,1021.17
2023-01-21T09:01:53.270Z,1021.20
2023-01-21T09:02:53.243Z,1021.21
2023-01-21T09:03:53.220Z,1021.27
2023-01-21T09:04:53.212Z,1021.32
2023-01-21T09:05:53.191Z,1021.32
2023-01-21T09:06:53.191Z,1021.35
2023-01-21T09:07:53.178Z,1021.31
2023-01-21T09:08:53.147Z,1021.36
2023-01-21T09:09:53.135Z,1021.32
2023-01-21T09:10:53.117Z,1021.40
2023-01-21T09:11:53.111Z,1021.45
2023-01-21T09:12:53.086Z,1021.43
2023-01-21T09:13:53.083Z,1021.38
2023-01-21T09:14:53.066Z,1021.44
2023-01-21T09:15:53.047Z,1021.42
2023-01-21T09:16:53.033Z,1021.45
2023-01-21T09:17:53.020Z,1021.44
2023-01-21T09:18:53.011Z,1021.42
2023-01-21T09:19:55.365Z,1021.46
2023-01-21T09:20:52.994Z,1021.46
2023-01-21T09:21:52.976Z,1021.50
2023-01-21T09:22:52.949Z,1021.48
2023-01-21T09:23:52.928Z,1021.44
2023-01-21T09:24:52.921Z,1021.50
2023-01-21T09:25:52.909Z,1021.50
2023-01-21T09:26:52.897Z,1021.51
2023-01-21T09:27:52.876Z,1021.53
2023-01-21T09:28:52.868Z,1021.56
2023-01-21T09:29:52.855Z,1021.52
2023-01-21T09:30:52.855Z,1021.53
2023-01-21T09:31:52.842Z,1021.56
2023-01-21T09:32:52.821Z,1021.54
2023-01-21T09:33:52.803Z,1021.55
2023-01-21T09:34:52.779Z,1021.51
2023-01-21T09:35:52.768Z,1021.53
2023-01-21T09:36:52.755Z,1021.55
2023-01-21T09:37:52.743Z,1021.63
2023-01-21T09:38:52.728Z,1021.59
2023-01-21T09:39:52.712Z,1021.65
2023-01-21T09:40:52.697Z,1021.61
2023-01-21T09:41:52.684Z,1021.66
2023-01-21T09:42:52.687Z,1021.70
2023-01-21T09:43:52.660Z,1021.72
2023-01-21T09:44:52.645Z,1021.74
2023-01-21T09:45:52.662Z,1021.72
2023-01-21T09:46:52.617Z,1021.81
2023-01-21T09:47:52.613Z,1021.81
2023-01-21T09:48:52.622Z,1021.84
2023-01-21T09:49:52.580Z,1021.88
2023-01-21T09:50:52.615Z,1021.81
2023-01-21T09:51:52.901Z,1021.88
2023-01-21T09:52:52.536Z,1021.89
2023-01-21T09:53:52.524Z,1021.86
2023-01-21T09:54:52.513Z,1021.90
2023-01-21T09:55:52.519Z,1021.90
2023-01-21T09:56:52.493Z,1021.92
2023-01-21T09:57:52.491Z,1021.92
2023-01-21T09:58:52.473Z,1021.89
2023-01-21T09:59:52.453Z,1021.94
2023-01-21T10:00:52.504Z,1021.92
2023-01-21T10:01:52.440Z,1021.97
2023-01-21T10:02:52.427Z,1022.03
2023-01-21T10:03:52.418Z,1022.03
2023-01-21T10:04:52.450Z,1022.03
2023-01-21T10:05:52.393Z,1022.06
2023-01-21T10:06:52.379Z,1022.04
2023-01-21T10:07:52.363Z,1022.09
2023-01-21T10:08:52.352Z,1022.08
2023-01-21T10:09:52.343Z,1022.04
2023-01-21T10:10:52.349Z,1022.06
2023-01-21T10:11:52.317Z,1022.03
2023-01-21T10:12:52.317Z,1022.05
2023-01-21T10:13:52.297Z,1022.07
2023-01-21T10:14:52.296Z,1022.11
2023-01-21T10:15:52.282Z,1022.07
2023-01-21T10:16:52.290Z,1022.09
2023-01-21T10:17:52.268Z,1022.09
2023-01-21T10:18:52.247Z,1022.18
2023-01-21T10:19:52.244Z,1022.17
2023-01-21T10:20:52.230Z,1022.19
2023-01-21T10:21:52.213Z,1022.19
2023-01-21T10:22:52.201Z,1022.26
2023-01-21T10:23:52.206Z,1022.25
2023-01-21T10:24:52.183Z,1022.22
2023-01-21T10:25:52.177Z,1022.25
2023-01-21T10:26:52.158Z,1022.24
2023-01-21T10:27:52.152Z,1022.28
2023-01-21T10:28:52.134Z,1022.32
2023-01-21T10:29:52.131Z,1022.29
2023-01-21T10:30:52.185Z,1022.33
2023-01-21T10:31:52.210Z,1022.31
2023-01-21T10:32:52.123Z,1022.33
2023-01-21T10:33:52.094Z,1022.25
2023-01-21T10:34:52.087Z,1022.19
2023-01-21T10:35:52.076Z,1022.21
2023-01-21T10:36:52.076Z,1022.18
2023-01-21T10:37:52.057Z,1022.20
2023-01-21T10:38:52.050Z,1022.20
2023-01-21T10:39:52.054Z,1022.16
2023-01-21T10:40:52.044Z,1022.15
2023-01-21T10:41:52.026Z,1022.18
2023-01-21T10:42:52.010Z,1022.14
2023-01-21T10:43:51.998Z,1022.14
2023-01-21T10:44:51.992Z,1022.21
2023-01-21T10:45:52.023Z,1022.25
2023-01-21T10:46:51.974Z,1022.22
2023-01-21T10:47:51.964Z,1022.26
2023-01-21T10:48:51.960Z,1022.24
2023-01-21T10:49:51.947Z,1022.25
2023-01-21T10:50:51.980Z,1022.24
2023-01-21T10:51:51.927Z,1022.29
2023-01-21T10:52:51.913Z,1022.27
2023-01-21T10:53:51.914Z,1022.26
2023-01-21T10:54:51.899Z,1022.27
2023-01-21T10:55:51.881Z,1022.24
2023-01-21T10:56:51.950Z,1022.27
2023-01-21T10:57:51.867Z,1022.30
2023-01-21T10:58:51.857Z,1022.26
2023-01-21T10:59:51.842Z,1022.27
2023-01-21T11:00:51.823Z,1022.24
2023-01-21T11:01:51.812Z,1022.22
2023-01-21T11:02:51.887Z,1022.21
2023-01-21T11:03:51.793Z,1022.18
2023-01-21T11:04:51.790Z,1022.18
2023-01-21T11:05:51.763Z,1022.19
2023-01-21T11:06:51.755Z,1022.18
2023-01-21T11:07:51.766Z,1022.18
2023-01-21T11:08:51.793Z,1022.22
2023-01-21T11:09:51.722Z,1022.20
2023-01-21T11:10:51.711Z,1022.22
2023-01-21T11:11:51.699Z,1022.23
2023-01-21T11:12:51.686Z,1022.23
2023-01-21T11:13:51.670Z,1022.20
2023-01-21T11:14:51.661Z,1022.25
2023-01-21T11:15:51.700Z,1022.19
2023-01-21T11:16:51.639Z,1022.21
2023-01-21T11:17:51.635Z,1022.25
2023-01-21T11:18:51.609Z,1022.25
2023-01-21T11:19:51.598Z,1022.24
2023-01-21T11:20:51.593Z,1022.27
2023-01-21T11:21:51.581Z,1022.26
2023-01-21T11:22:51.568Z,1022.22
2023-01-21T11:23:51.548Z,1022.25
2023-01-21T11:24:51.564Z,1022.24
2023-01-21T11:25:51.533Z,1022.22
2023-01-21T11:26:51.509Z,1022.24
2023-01-21T11:27:51.507Z,1022.24
2023-01-21T11:28:51.490Z,1022.21
2023-01-21T11:29:51.486Z,1022.20
2023-01-21T11:30:51.891Z,1022.22
2023-01-21T11:31:51.570Z,1022.23
2023-01-21T11:32:51.459Z,1022.21
2023-01-21T11:33:51.428Z,1022.18
2023-01-21T11:34:51.432Z,1022.20
2023-01-21T11:35:51.409Z,1022.17
2023-01-21T11:36:51.398Z,1022.16
2023-01-21T11:37:51.384Z,1022.19
2023-01-21T11:38:51.372Z,1022.15
2023-01-21T11:39:51.354Z,1022.16
2023-01-21T11:40:51.351Z,1022.18
2023-01-21T11:41:51.328Z,1022.18
2023-01-21T11:42:51.314Z,1022.18
2023-01-21T11:43:51.313Z,1022.18
2023-01-21T11:44:51.299Z,1022.15
2023-01-21T11:45:51.313Z,1022.15
2023-01-21T11:46:51.275Z,1022.13
2023-01-21T11:47:51.267Z,1022.13
2023-01-21T11:48:51.250Z,1022.12
2023-01-21T11:49:51.237Z,1022.13
2023-01-21T11:50:51.249Z,1022.14
2023-01-21T11:51:51.207Z,1022.10
2023-01-21T11:52:51.191Z,1022.10
2023-01-21T11:53:51.175Z,1022.08
2023-01-21T11:54:51.171Z,1022.06
2023-01-21T11:55:51.164Z,1022.02
2023-01-21T11:56:51.143Z,1022.04
2023-01-21T11:57:51.129Z,1022.05
2023-01-21T11:58:51.119Z,1022.01
2023-01-21T11:59:51.102Z,1022.01
2023-01-21T12:00:51.088Z,1022.03
2023-01-21T12:01:51.082Z,1022.08
2023-01-21T12:02:51.091Z,1022.05
2023-01-21T12:03:51.101Z,1022.07
2023-01-21T12:04:51.046Z,1022.05